sensor_id;sensor_type;location;lat;lon;timestamp;P1;durP1;ratioP1;P2;durP2;ratioP2
47882;SDS011;37739;50.350;7.578;2022-07-17T00:02:06;1.73;;;1.57;;
47882;SDS011;37739;50.350;7.578;2022-07-17T00:04:34;1.93;;;1.53;;
47882;SDS011;37739;50.350;7.578;2022-07-17T00:06:59;1.43;;;1.30;;
47882;SDS011;37739;50.350;7.578;2022-07-17T00:09:25;2.33;;;1.50;;
47882;SDS011;37739;50.350;7.578;2022-07-17T00:11:52;2.63;;;1.40;;
47882;SDS011;37739;50.350;7.578;2022-07-17T00:14:19;1.70;;;1.30;;
47882;SDS011;37739;50.350;7.578;2022-07-17T00:16:47;3.27;;;1.77;;
47882;SDS011;37739;50.350;7.578;2022-07-17T00:19:13;2.13;;;1.30;;
47882;SDS011;37739;50.350;7.578;2022-07-17T00:21:41;2.33;;;1.33;;
47882;SDS011;37739;50.350;7.578;2022-07-17T00:24:09;2.30;;;1.50;;
47882;SDS011;37739;50.350;7.578;2022-07-17T00:26:35;1.90;;;1.67;;
47882;SDS011;37739;50.350;7.578;2022-07-17T00:29:02;3.23;;;1.70;;
47882;SDS011;37739;50.350;7.578;2022-07-17T00:31:28;1.40;;;1.20;;
47882;SDS011;37739;50.350;7.578;2022-07-17T00:33:54;2.03;;;1.60;;
47882;SDS011;37739;50.350;7.578;2022-07-17T00:36:19;2.17;;;1.47;;
47882;SDS011;37739;50.350;7.578;2022-07-17T00:38:47;2.27;;;1.30;;
47882;SDS011;37739;50.350;7.578;2022-07-17T00:41:14;1.40;;;1.30;;
47882;SDS011;37739;50.350;7.578;2022-07-17T00:43:40;4.53;;;1.60;;
47882;SDS011;37739;50.350;7.578;2022-07-17T00:46:09;1.83;;;1.13;;
47882;SDS011;37739;50.350;7.578;2022-07-17T00:48:35;2.47;;;1.40;;
47882;SDS011;37739;50.350;7.578;2022-07-17T00:51:03;1.70;;;1.33;;
47882;SDS011;37739;50.350;7.578;2022-07-17T00:53:28;1.57;;;1.30;;
47882;SDS011;37739;50.350;7.578;2022-07-17T00:55:58;1.60;;;1.20;;
47882;SDS011;37739;50.350;7.578;2022-07-17T00:58:27;2.60;;;1.30;;
47882;SDS011;37739;50.350;7.578;2022-07-17T01:01:03;1.67;;;1.40;;
47882;SDS011;37739;50.350;7.578;2022-07-17T01:03:34;1.37;;;1.00;;
47882;SDS011;37739;50.350;7.578;2022-07-17T01:05:59;1.27;;;1.10;;
47882;SDS011;37739;50.350;7.578;2022-07-17T01:08:30;1.90;;;1.40;;
47882;SDS011;37739;50.350;7.578;2022-07-17T01:10:59;4.40;;;1.60;;
47882;SDS011;37739;50.350;7.578;2022-07-17T01:13:27;2.60;;;1.37;;
47882;SDS011;37739;50.350;7.578;2022-07-17T01:15:55;2.60;;;1.60;;
47882;SDS011;37739;50.350;7.578;2022-07-17T01:18:23;1.60;;;1.33;;
47882;SDS011;37739;50.350;7.578;2022-07-17T01:20:52;1.90;;;1.50;;
47882;SDS011;37739;50.350;7.578;2022-07-17T01:23:19;1.53;;;1.20;;
47882;SDS011;37739;50.350;7.578;2022-07-17T01:25:47;2.13;;;1.60;;
47882;SDS011;37739;50.350;7.578;2022-07-17T01:28:12;3.57;;;1.77;;
47882;SDS011;37739;50.350;7.578;2022-07-17T01:30:49;2.57;;;1.53;;
47882;SDS011;37739;50.350;7.578;2022-07-17T01:33:18;1.70;;;1.33;;
47882;SDS011;37739;50.350;7.578;2022-07-17T01:35:44;1.70;;;1.27;;
47882;SDS011;37739;50.350;7.578;2022-07-17T01:38:10;1.77;;;1.20;;
47882;SDS011;37739;50.350;7.578;2022-07-17T01:40:35;2.40;;;1.40;;
47882;SDS011;37739;50.350;7.578;2022-07-17T01:43:03;2.77;;;1.50;;
47882;SDS011;37739;50.350;7.578;2022-07-17T01:45:28;3.13;;;1.63;;
47882;SDS011;37739;50.350;7.578;2022-07-17T01:47:53;1.77;;;1.50;;
47882;SDS011;37739;50.350;7.578;2022-07-17T01:50:21;1.53;;;1.23;;
47882;SDS011;37739;50.350;7.578;2022-07-17T01:52:47;3.20;;;1.40;;
47882;SDS011;37739;50.350;7.578;2022-07-17T01:55:14;2.17;;;1.17;;
47882;SDS011;37739;50.350;7.578;2022-07-17T01:57:41;1.90;;;1.40;;
47882;SDS011;37739;50.350;7.578;2022-07-17T02:00:09;2.90;;;1.63;;
47882;SDS011;37739;50.350;7.578;2022-07-17T02:02:39;1.53;;;1.20;;
47882;SDS011;37739;50.350;7.578;2022-07-17T02:05:04;2.13;;;1.07;;
47882;SDS011;37739;50.350;7.578;2022-07-17T02:07:30;1.20;;;1.10;;
47882;SDS011;37739;50.350;7.578;2022-07-17T02:09:57;2.20;;;1.30;;
47882;SDS011;37739;50.350;7.578;2022-07-17T02:12:24;2.97;;;1.40;;
47882;SDS011;37739;50.350;7.578;2022-07-17T02:14:49;1.70;;;1.20;;
47882;SDS011;37739;50.350;7.578;2022-07-17T02:17:15;1.53;;;1.37;;
47882;SDS011;37739;50.350;7.578;2022-07-17T02:19:40;3.23;;;1.50;;
47882;SDS011;37739;50.350;7.578;2022-07-17T02:22:06;3.87;;;1.70;;
47882;SDS011;37739;50.350;7.578;2022-07-17T02:24:31;3.63;;;1.80;;
47882;SDS011;37739;50.350;7.578;2022-07-17T02:26:56;2.20;;;1.50;;
47882;SDS011;37739;50.350;7.578;2022-07-17T02:29:22;2.50;;;1.40;;
47882;SDS011;37739;50.350;7.578;2022-07-17T02:31:49;2.40;;;1.40;;
47882;SDS011;37739;50.350;7.578;2022-07-17T02:34:15;2.80;;;1.40;;
47882;SDS011;37739;50.350;7.578;2022-07-17T02:36:40;2.57;;;1.40;;
47882;SDS011;37739;50.350;7.578;2022-07-17T02:39:09;2.40;;;1.47;;
47882;SDS011;37739;50.350;7.578;2022-07-17T02:41:36;5.23;;;1.30;;
47882;SDS011;37739;50.350;7.578;2022-07-17T02:44:02;1.63;;;1.40;;
47882;SDS011;37739;50.350;7.578;2022-07-17T02:46:29;2.20;;;1.67;;
47882;SDS011;37739;50.350;7.578;2022-07-17T02:48:55;2.00;;;1.50;;
47882;SDS011;37739;50.350;7.578;2022-07-17T02:51:23;2.30;;;1.20;;
47882;SDS011;37739;50.350;7.578;2022-07-17T02:53:48;1.80;;;1.37;;
47882;SDS011;37739;50.350;7.578;2022-07-17T02:56:13;2.53;;;1.50;;
47882;SDS011;37739;50.350;7.578;2022-07-17T02:58:39;1.80;;;1.63;;
47882;SDS011;37739;50.350;7.578;2022-07-17T03:01:04;3.73;;;1.50;;
47882;SDS011;37739;50.350;7.578;2022-07-17T03:03:29;4.50;;;1.47;;
47882;SDS011;37739;50.350;7.578;2022-07-17T03:05:57;3.97;;;1.47;;
47882;SDS011;37739;50.350;7.578;2022-07-17T03:08:27;1.70;;;1.40;;
47882;SDS011;37739;50.350;7.578;2022-07-17T03:10:52;2.10;;;1.40;;
47882;SDS011;37739;50.350;7.578;2022-07-17T03:13:18;2.00;;;1.20;;
47882;SDS011;37739;50.350;7.578;2022-07-17T03:15:45;2.20;;;1.30;;
47882;SDS011;37739;50.350;7.578;2022-07-17T03:18:11;1.70;;;1.23;;
47882;SDS011;37739;50.350;7.578;2022-07-17T03:20:39;1.57;;;1.30;;
47882;SDS011;37739;50.350;7.578;2022-07-17T03:23:04;2.20;;;1.30;;
47882;SDS011;37739;50.350;7.578;2022-07-17T03:25:32;2.33;;;1.30;;
47882;SDS011;37739;50.350;7.578;2022-07-17T03:27:57;2.77;;;1.50;;
47882;SDS011;37739;50.350;7.578;2022-07-17T03:30:23;1.60;;;1.50;;
47882;SDS011;37739;50.350;7.578;2022-07-17T03:32:50;2.10;;;1.43;;
47882;SDS011;37739;50.350;7.578;2022-07-17T03:35:16;3.20;;;1.57;;
47882;SDS011;37739;50.350;7.578;2022-07-17T03:37:41;1.60;;;1.40;;
47882;SDS011;37739;50.350;7.578;2022-07-17T03:40:08;1.70;;;1.43;;
47882;SDS011;37739;50.350;7.578;2022-07-17T03:42:37;1.40;;;1.20;;
47882;SDS011;37739;50.350;7.578;2022-07-17T03:45:03;2.00;;;1.50;;
47882;SDS011;37739;50.350;7.578;2022-07-17T03:47:29;2.03;;;1.33;;
47882;SDS011;37739;50.350;7.578;2022-07-17T03:49:54;2.07;;;1.70;;
47882;SDS011;37739;50.350;7.578;2022-07-17T03:52:19;1.97;;;1.33;;
47882;SDS011;37739;50.350;7.578;2022-07-17T03:54:45;2.50;;;1.30;;
47882;SDS011;37739;50.350;7.578;2022-07-17T03:57:14;2.43;;;1.70;;
47882;SDS011;37739;50.350;7.578;2022-07-17T03:59:40;2.60;;;1.37;;
47882;SDS011;37739;50.350;7.578;2022-07-17T04:02:05;4.23;;;1.60;;
47882;SDS011;37739;50.350;7.578;2022-07-17T04:04:30;2.20;;;1.50;;
47882;SDS011;37739;50.350;7.578;2022-07-17T04:06:58;3.10;;;1.50;;
47882;SDS011;37739;50.350;7.578;2022-07-17T04:09:23;2.70;;;1.50;;
47882;SDS011;37739;50.350;7.578;2022-07-17T04:11:51;1.80;;;1.50;;
47882;SDS011;37739;50.350;7.578;2022-07-17T04:14:16;1.40;;;1.30;;
47882;SDS011;37739;50.350;7.578;2022-07-17T04:16:44;3.17;;;2.03;;
47882;SDS011;37739;50.350;7.578;2022-07-17T04:19:09;1.30;;;1.03;;
47882;SDS011;37739;50.350;7.578;2022-07-17T04:21:39;2.03;;;1.27;;
47882;SDS011;37739;50.350;7.578;2022-07-17T04:24:05;2.17;;;1.30;;
47882;SDS011;37739;50.350;7.578;2022-07-17T04:26:30;1.93;;;1.73;;
47882;SDS011;37739;50.350;7.578;2022-07-17T04:28:58;2.00;;;1.67;;
47882;SDS011;37739;50.350;7.578;2022-07-17T04:31:23;2.70;;;1.50;;
47882;SDS011;37739;50.350;7.578;2022-07-17T04:33:49;2.47;;;1.37;;
47882;SDS011;37739;50.350;7.578;2022-07-17T04:36:19;3.23;;;1.43;;
47882;SDS011;37739;50.350;7.578;2022-07-17T04:38:47;2.20;;;1.40;;
47882;SDS011;37739;50.350;7.578;2022-07-17T04:41:12;1.73;;;1.47;;
47882;SDS011;37739;50.350;7.578;2022-07-17T04:43:40;2.33;;;1.60;;
47882;SDS011;37739;50.350;7.578;2022-07-17T04:46:07;1.90;;;1.70;;
47882;SDS011;37739;50.350;7.578;2022-07-17T04:48:33;1.57;;;1.40;;
47882;SDS011;37739;50.350;7.578;2022-07-17T04:51:01;2.10;;;1.40;;
47882;SDS011;37739;50.350;7.578;2022-07-17T04:53:29;2.03;;;1.43;;
47882;SDS011;37739;50.350;7.578;2022-07-17T04:55:55;2.50;;;1.30;;
47882;SDS011;37739;50.350;7.578;2022-07-17T04:58:24;3.03;;;1.50;;
47882;SDS011;37739;50.350;7.578;2022-07-17T05:00:49;2.13;;;1.77;;
47882;SDS011;37739;50.350;7.578;2022-07-17T05:03:17;3.83;;;1.70;;
47882;SDS011;37739;50.350;7.578;2022-07-17T05:05:42;2.50;;;1.60;;
47882;SDS011;37739;50.350;7.578;2022-07-17T05:08:07;4.50;;;1.80;;
47882;SDS011;37739;50.350;7.578;2022-07-17T05:10:33;2.17;;;1.73;;
47882;SDS011;37739;50.350;7.578;2022-07-17T05:13:00;2.83;;;1.90;;
47882;SDS011;37739;50.350;7.578;2022-07-17T05:15:26;2.80;;;1.63;;
47882;SDS011;37739;50.350;7.578;2022-07-17T05:17:53;3.00;;;1.70;;
47882;SDS011;37739;50.350;7.578;2022-07-17T05:20:18;1.63;;;1.53;;
47882;SDS011;37739;50.350;7.578;2022-07-17T05:22:49;2.33;;;1.67;;
47882;SDS011;37739;50.350;7.578;2022-07-17T05:25:14;2.03;;;1.80;;
47882;SDS011;37739;50.350;7.578;2022-07-17T05:27:39;2.03;;;1.80;;
47882;SDS011;37739;50.350;7.578;2022-07-17T05:30:05;2.00;;;1.80;;
47882;SDS011;37739;50.350;7.578;2022-07-17T05:32:33;3.33;;;2.07;;
47882;SDS011;37739;50.350;7.578;2022-07-17T05:35:00;2.47;;;1.57;;
47882;SDS011;37739;50.350;7.578;2022-07-17T05:37:28;2.33;;;1.50;;
47882;SDS011;37739;50.350;7.578;2022-07-17T05:39:55;1.73;;;1.50;;
47882;SDS011;37739;50.350;7.578;2022-07-17T05:42:20;2.50;;;1.67;;
47882;SDS011;37739;50.350;7.578;2022-07-17T05:44:48;3.53;;;1.63;;
47882;SDS011;37739;50.350;7.578;2022-07-17T05:47:16;2.33;;;1.47;;
47882;SDS011;37739;50.350;7.578;2022-07-17T05:49:41;1.93;;;1.30;;
47882;SDS011;37739;50.350;7.578;2022-07-17T05:52:06;1.40;;;1.30;;
47882;SDS011;37739;50.350;7.578;2022-07-17T05:54:34;1.77;;;1.67;;
47882;SDS011;37739;50.350;7.578;2022-07-17T05:57:02;3.10;;;1.53;;
47882;SDS011;37739;50.350;7.578;2022-07-17T05:59:30;4.00;;;1.70;;
47882;SDS011;37739;50.350;7.578;2022-07-17T06:01:56;1.93;;;1.40;;
47882;SDS011;37739;50.350;7.578;2022-07-17T06:04:23;2.33;;;1.60;;
47882;SDS011;37739;50.350;7.578;2022-07-17T06:06:53;1.70;;;1.23;;
47882;SDS011;37739;50.350;7.578;2022-07-17T06:09:18;1.50;;;1.37;;
47882;SDS011;37739;50.350;7.578;2022-07-17T06:11:46;1.67;;;1.53;;
47882;SDS011;37739;50.350;7.578;2022-07-17T06:14:12;2.03;;;1.60;;
47882;SDS011;37739;50.350;7.578;2022-07-17T06:16:37;2.40;;;1.63;;
47882;SDS011;37739;50.350;7.578;2022-07-17T06:19:05;2.70;;;1.50;;
47882;SDS011;37739;50.350;7.578;2022-07-17T06:21:31;3.73;;;1.70;;
47882;SDS011;37739;50.350;7.578;2022-07-17T06:23:58;2.10;;;1.40;;
47882;SDS011;37739;50.350;7.578;2022-07-17T06:26:26;2.13;;;1.67;;
47882;SDS011;37739;50.350;7.578;2022-07-17T06:28:51;2.10;;;1.60;;
47882;SDS011;37739;50.350;7.578;2022-07-17T06:31:17;2.63;;;1.70;;
47882;SDS011;37739;50.350;7.578;2022-07-17T06:33:42;1.20;;;1.10;;
47882;SDS011;37739;50.350;7.578;2022-07-17T06:36:08;1.87;;;1.37;;
47882;SDS011;37739;50.350;7.578;2022-07-17T06:38:36;1.97;;;1.60;;
47882;SDS011;37739;50.350;7.578;2022-07-17T06:41:06;2.13;;;1.90;;
47882;SDS011;37739;50.350;7.578;2022-07-17T06:43:33;2.40;;;1.60;;
47882;SDS011;37739;50.350;7.578;2022-07-17T06:45:59;3.27;;;1.83;;
47882;SDS011;37739;50.350;7.578;2022-07-17T06:48:24;1.77;;;1.33;;
47882;SDS011;37739;50.350;7.578;2022-07-17T06:50:52;1.73;;;1.30;;
47882;SDS011;37739;50.350;7.578;2022-07-17T06:53:17;4.10;;;1.80;;
47882;SDS011;37739;50.350;7.578;2022-07-17T06:55:43;2.20;;;1.47;;
47882;SDS011;37739;50.350;7.578;2022-07-17T06:58:08;1.60;;;1.43;;
47882;SDS011;37739;50.350;7.578;2022-07-17T07:00:36;3.50;;;2.20;;
47882;SDS011;37739;50.350;7.578;2022-07-17T07:03:02;1.90;;;1.60;;
47882;SDS011;37739;50.350;7.578;2022-07-17T07:05:30;2.17;;;1.47;;
47882;SDS011;37739;50.350;7.578;2022-07-17T07:07:55;2.70;;;1.73;;
47882;SDS011;37739;50.350;7.578;2022-07-17T07:10:21;1.90;;;1.40;;
47882;SDS011;37739;50.350;7.578;2022-07-17T07:12:49;1.90;;;1.60;;
47882;SDS011;37739;50.350;7.578;2022-07-17T07:15:14;1.80;;;1.43;;
47882;SDS011;37739;50.350;7.578;2022-07-17T07:17:40;2.13;;;1.27;;
47882;SDS011;37739;50.350;7.578;2022-07-17T07:20:06;1.77;;;1.50;;
47882;SDS011;37739;50.350;7.578;2022-07-17T07:22:32;2.13;;;1.67;;
47882;SDS011;37739;50.350;7.578;2022-07-17T07:25:00;3.37;;;1.60;;
47882;SDS011;37739;50.350;7.578;2022-07-17T07:27:25;2.03;;;1.70;;
47882;SDS011;37739;50.350;7.578;2022-07-17T07:29:54;1.60;;;1.40;;
47882;SDS011;37739;50.350;7.578;2022-07-17T07:32:19;2.60;;;1.57;;
47882;SDS011;37739;50.350;7.578;2022-07-17T07:34:49;1.87;;;1.30;;
47882;SDS011;37739;50.350;7.578;2022-07-17T07:37:14;1.70;;;1.30;;
47882;SDS011;37739;50.350;7.578;2022-07-17T07:39:39;2.50;;;1.70;;
47882;SDS011;37739;50.350;7.578;2022-07-17T07:42:07;1.83;;;1.20;;
47882;SDS011;37739;50.350;7.578;2022-07-17T07:44:35;1.90;;;1.50;;
47882;SDS011;37739;50.350;7.578;2022-07-17T07:47:03;2.67;;;1.77;;
47882;SDS011;37739;50.350;7.578;2022-07-17T07:49:30;2.40;;;1.30;;
47882;SDS011;37739;50.350;7.578;2022-07-17T07:51:58;4.00;;;1.77;;
47882;SDS011;37739;50.350;7.578;2022-07-17T07:54:23;2.07;;;1.17;;
47882;SDS011;37739;50.350;7.578;2022-07-17T07:56:51;2.97;;;1.30;;
47882;SDS011;37739;50.350;7.578;2022-07-17T07:59:16;4.60;;;1.50;;
47882;SDS011;37739;50.350;7.578;2022-07-17T08:01:41;2.40;;;1.80;;
47882;SDS011;37739;50.350;7.578;2022-07-17T08:04:07;2.77;;;1.20;;
47882;SDS011;37739;50.350;7.578;2022-07-17T08:06:32;2.03;;;1.43;;
47882;SDS011;37739;50.350;7.578;2022-07-17T08:08:57;2.13;;;1.30;;
47882;SDS011;37739;50.350;7.578;2022-07-17T08:11:27;1.57;;;1.23;;
47882;SDS011;37739;50.350;7.578;2022-07-17T08:13:55;2.57;;;1.20;;
47882;SDS011;37739;50.350;7.578;2022-07-17T08:16:20;3.10;;;1.30;;
47882;SDS011;37739;50.350;7.578;2022-07-17T08:18:46;1.70;;;1.10;;
47882;SDS011;37739;50.350;7.578;2022-07-17T08:21:13;1.87;;;1.30;;
47882;SDS011;37739;50.350;7.578;2022-07-17T08:23:39;2.00;;;1.07;;
47882;SDS011;37739;50.350;7.578;2022-07-17T08:26:08;1.47;;;1.00;;
47882;SDS011;37739;50.350;7.578;2022-07-17T08:28:34;2.03;;;1.37;;
47882;SDS011;37739;50.350;7.578;2022-07-17T08:31:00;2.47;;;1.80;;
47882;SDS011;37739;50.350;7.578;2022-07-17T08:33:25;2.40;;;1.57;;
47882;SDS011;37739;50.350;7.578;2022-07-17T08:35:51;2.90;;;1.50;;
47882;SDS011;37739;50.350;7.578;2022-07-17T08:38:18;1.87;;;1.10;;
47882;SDS011;37739;50.350;7.578;2022-07-17T08:40:48;1.57;;;1.17;;
47882;SDS011;37739;50.350;7.578;2022-07-17T08:43:19;2.77;;;1.50;;
47882;SDS011;37739;50.350;7.578;2022-07-17T08:45:50;1.40;;;1.10;;
47882;SDS011;37739;50.350;7.578;2022-07-17T08:48:18;1.80;;;0.90;;
47882;SDS011;37739;50.350;7.578;2022-07-17T08:50:44;1.83;;;1.20;;
47882;SDS011;37739;50.350;7.578;2022-07-17T08:53:13;3.00;;;1.20;;
47882;SDS011;37739;50.350;7.578;2022-07-17T08:55:40;1.70;;;1.10;;
47882;SDS011;37739;50.350;7.578;2022-07-17T08:58:06;1.40;;;0.90;;
47882;SDS011;37739;50.350;7.578;2022-07-17T09:00:31;1.50;;;1.00;;
47882;SDS011;37739;50.350;7.578;2022-07-17T09:03:00;2.03;;;1.03;;
47882;SDS011;37739;50.350;7.578;2022-07-17T09:05:34;2.20;;;1.13;;
47882;SDS011;37739;50.350;7.578;2022-07-17T09:08:00;1.93;;;1.10;;
47882;SDS011;37739;50.350;7.578;2022-07-17T09:10:39;1.97;;;1.10;;
47882;SDS011;37739;50.350;7.578;2022-07-17T09:13:22;1.93;;;1.00;;
47882;SDS011;37739;50.350;7.578;2022-07-17T09:15:48;2.90;;;1.47;;
47882;SDS011;37739;50.350;7.578;2022-07-17T09:18:15;2.07;;;1.43;;
47882;SDS011;37739;50.350;7.578;2022-07-17T09:20:48;1.20;;;0.70;;
47882;SDS011;37739;50.350;7.578;2022-07-17T09:23:24;1.33;;;1.00;;
47882;SDS011;37739;50.350;7.578;2022-07-17T09:25:55;1.63;;;1.10;;
47882;SDS011;37739;50.350;7.578;2022-07-17T09:28:21;1.90;;;1.10;;
47882;SDS011;37739;50.350;7.578;2022-07-17T09:30:51;2.00;;;1.40;;
47882;SDS011;37739;50.350;7.578;2022-07-17T09:33:23;1.93;;;1.43;;
47882;SDS011;37739;50.350;7.578;2022-07-17T09:35:53;2.10;;;1.07;;
47882;SDS011;37739;50.350;7.578;2022-07-17T09:38:26;2.20;;;1.10;;
47882;SDS011;37739;50.350;7.578;2022-07-17T09:41:27;2.23;;;1.40;;
47882;SDS011;37739;50.350;7.578;2022-07-17T09:48:44;1.30;;;1.00;;
47882;SDS011;37739;50.350;7.578;2022-07-17T09:51:15;1.97;;;1.10;;
47882;SDS011;37739;50.350;7.578;2022-07-17T09:53:44;1.67;;;0.93;;
47882;SDS011;37739;50.350;7.578;2022-07-17T09:56:16;1.60;;;1.03;;
47882;SDS011;37739;50.350;7.578;2022-07-17T09:58:51;1.97;;;1.30;;
47882;SDS011;37739;50.350;7.578;2022-07-17T10:01:24;3.20;;;1.20;;
47882;SDS011;37739;50.350;7.578;2022-07-17T10:03:50;2.70;;;1.30;;
47882;SDS011;37739;50.350;7.578;2022-07-17T10:06:19;2.23;;;1.23;;
47882;SDS011;37739;50.350;7.578;2022-07-17T10:08:45;2.20;;;1.23;;
47882;SDS011;37739;50.350;7.578;2022-07-17T10:11:13;2.00;;;1.20;;
47882;SDS011;37739;50.350;7.578;2022-07-17T10:13:43;3.73;;;1.07;;
47882;SDS011;37739;50.350;7.578;2022-07-17T10:16:13;2.37;;;1.10;;
47882;SDS011;37739;50.350;7.578;2022-07-17T10:18:47;1.97;;;1.00;;
47882;SDS011;37739;50.350;7.578;2022-07-17T10:21:17;1.47;;;0.80;;
47882;SDS011;37739;50.350;7.578;2022-07-17T10:28:58;2.13;;;1.00;;
47882;SDS011;37739;50.350;7.578;2022-07-17T10:31:24;1.63;;;1.20;;
47882;SDS011;37739;50.350;7.578;2022-07-17T10:33:55;2.03;;;1.23;;
47882;SDS011;37739;50.350;7.578;2022-07-17T10:36:31;1.47;;;0.90;;
47882;SDS011;37739;50.350;7.578;2022-07-17T10:38:58;1.50;;;1.00;;
47882;SDS011;37739;50.350;7.578;2022-07-17T10:41:35;2.27;;;0.97;;
47882;SDS011;37739;50.350;7.578;2022-07-17T10:44:00;1.33;;;0.93;;
47882;SDS011;37739;50.350;7.578;2022-07-17T10:46:25;2.37;;;1.33;;
47882;SDS011;37739;50.350;7.578;2022-07-17T10:48:53;1.67;;;0.97;;
47882;SDS011;37739;50.350;7.578;2022-07-17T10:51:18;1.20;;;0.90;;
47882;SDS011;37739;50.350;7.578;2022-07-17T10:53:46;1.60;;;1.17;;
47882;SDS011;37739;50.350;7.578;2022-07-17T10:56:11;2.70;;;1.10;;
47882;SDS011;37739;50.350;7.578;2022-07-17T10:58:42;2.10;;;0.97;;
47882;SDS011;37739;50.350;7.578;2022-07-17T11:01:15;3.17;;;1.40;;
47882;SDS011;37739;50.350;7.578;2022-07-17T11:03:43;2.27;;;1.17;;
47882;SDS011;37739;50.350;7.578;2022-07-17T11:06:18;1.60;;;1.03;;
47882;SDS011;37739;50.350;7.578;2022-07-17T11:08:45;1.73;;;0.80;;
47882;SDS011;37739;50.350;7.578;2022-07-17T11:11:12;1.93;;;1.00;;
47882;SDS011;37739;50.350;7.578;2022-07-17T11:13:38;1.00;;;0.77;;
47882;SDS011;37739;50.350;7.578;2022-07-17T11:16:08;1.43;;;1.10;;
47882;SDS011;37739;50.350;7.578;2022-07-17T11:18:35;1.53;;;0.93;;
47882;SDS011;37739;50.350;7.578;2022-07-17T11:21:02;1.23;;;0.70;;
47882;SDS011;37739;50.350;7.578;2022-07-17T11:23:29;2.10;;;0.90;;
47882;SDS011;37739;50.350;7.578;2022-07-17T11:31:04;1.10;;;0.70;;
47882;SDS011;37739;50.350;7.578;2022-07-17T11:33:50;2.17;;;0.97;;
47882;SDS011;37739;50.350;7.578;2022-07-17T11:36:19;1.40;;;0.90;;
47882;SDS011;37739;50.350;7.578;2022-07-17T11:38:45;1.97;;;1.07;;
47882;SDS011;37739;50.350;7.578;2022-07-17T11:41:13;2.03;;;1.13;;
47882;SDS011;37739;50.350;7.578;2022-07-17T11:43:41;2.60;;;1.07;;
47882;SDS011;37739;50.350;7.578;2022-07-17T11:46:07;1.63;;;0.80;;
47882;SDS011;37739;50.350;7.578;2022-07-17T11:48:33;1.67;;;1.10;;
47882;SDS011;37739;50.350;7.578;2022-07-17T11:51:01;2.20;;;1.10;;
47882;SDS011;37739;50.350;7.578;2022-07-17T11:53:36;1.03;;;0.70;;
47882;SDS011;37739;50.350;7.578;2022-07-17T11:56:04;1.10;;;0.70;;
47882;SDS011;37739;50.350;7.578;2022-07-17T11:58:40;2.53;;;0.80;;
47882;SDS011;37739;50.350;7.578;2022-07-17T12:01:06;1.93;;;0.83;;
47882;SDS011;37739;50.350;7.578;2022-07-17T12:03:31;1.97;;;1.03;;
47882;SDS011;37739;50.350;7.578;2022-07-17T12:05:57;1.60;;;0.80;;
47882;SDS011;37739;50.350;7.578;2022-07-17T12:08:23;1.30;;;0.83;;
47882;SDS011;37739;50.350;7.578;2022-07-17T12:10:58;2.63;;;0.80;;
47882;SDS011;37739;50.350;7.578;2022-07-17T12:16:17;1.50;;;0.83;;
47882;SDS011;37739;50.350;7.578;2022-07-17T12:18:44;2.00;;;0.90;;
47882;SDS011;37739;50.350;7.578;2022-07-17T12:21:20;2.80;;;0.93;;
47882;SDS011;37739;50.350;7.578;2022-07-17T12:23:55;1.70;;;0.80;;
47882;SDS011;37739;50.350;7.578;2022-07-17T12:26:22;1.63;;;1.00;;
47882;SDS011;37739;50.350;7.578;2022-07-17T12:28:47;1.30;;;0.97;;
47882;SDS011;37739;50.350;7.578;2022-07-17T12:31:16;1.50;;;0.80;;
47882;SDS011;37739;50.350;7.578;2022-07-17T12:33:44;1.00;;;0.70;;
47882;SDS011;37739;50.350;7.578;2022-07-17T12:36:12;2.40;;;0.83;;
47882;SDS011;37739;50.350;7.578;2022-07-17T12:38:37;1.93;;;0.87;;
47882;SDS011;37739;50.350;7.578;2022-07-17T12:41:05;2.47;;;0.80;;
47882;SDS011;37739;50.350;7.578;2022-07-17T12:43:33;1.67;;;0.70;;
47882;SDS011;37739;50.350;7.578;2022-07-17T12:45:58;0.90;;;0.77;;
47882;SDS011;37739;50.350;7.578;2022-07-17T12:48:27;0.77;;;0.40;;
47882;SDS011;37739;50.350;7.578;2022-07-17T12:50:52;0.90;;;0.70;;
47882;SDS011;37739;50.350;7.578;2022-07-17T12:53:19;2.00;;;1.10;;
47882;SDS011;37739;50.350;7.578;2022-07-17T12:55:45;1.67;;;0.97;;
47882;SDS011;37739;50.350;7.578;2022-07-17T12:58:10;1.03;;;0.70;;
47882;SDS011;37739;50.350;7.578;2022-07-17T13:00:38;1.73;;;0.93;;
47882;SDS011;37739;50.350;7.578;2022-07-17T13:03:06;1.13;;;0.70;;
47882;SDS011;37739;50.350;7.578;2022-07-17T13:05:31;2.17;;;0.80;;
47882;SDS011;37739;50.350;7.578;2022-07-17T13:07:59;1.80;;;0.90;;
47882;SDS011;37739;50.350;7.578;2022-07-17T13:10:24;1.77;;;0.70;;
47882;SDS011;37739;50.350;7.578;2022-07-17T13:12:50;1.33;;;0.67;;
47882;SDS011;37739;50.350;7.578;2022-07-17T13:15:15;2.20;;;0.90;;
47882;SDS011;37739;50.350;7.578;2022-07-17T13:17:43;1.23;;;0.70;;
47882;SDS011;37739;50.350;7.578;2022-07-17T13:20:08;2.23;;;1.00;;
47882;SDS011;37739;50.350;7.578;2022-07-17T13:22:34;1.50;;;0.70;;
47882;SDS011;37739;50.350;7.578;2022-07-17T13:25:02;1.10;;;0.60;;
47882;SDS011;37739;50.350;7.578;2022-07-17T13:27:30;1.47;;;0.90;;
47882;SDS011;37739;50.350;7.578;2022-07-17T13:29:55;0.80;;;0.60;;
47882;SDS011;37739;50.350;7.578;2022-07-17T13:32:23;1.73;;;0.80;;
47882;SDS011;37739;50.350;7.578;2022-07-17T13:34:49;1.67;;;0.60;;
47882;SDS011;37739;50.350;7.578;2022-07-17T13:37:20;0.90;;;0.73;;
47882;SDS011;37739;50.350;7.578;2022-07-17T13:39:45;1.23;;;0.70;;
47882;SDS011;37739;50.350;7.578;2022-07-17T13:42:10;1.70;;;0.80;;
47882;SDS011;37739;50.350;7.578;2022-07-17T13:44:36;1.20;;;0.77;;
47882;SDS011;37739;50.350;7.578;2022-07-17T13:47:03;1.10;;;0.73;;
47882;SDS011;37739;50.350;7.578;2022-07-17T13:49:29;1.77;;;1.10;;
47882;SDS011;37739;50.350;7.578;2022-07-17T13:51:54;2.20;;;0.90;;
47882;SDS011;37739;50.350;7.578;2022-07-17T13:54:20;1.17;;;0.80;;
47882;SDS011;37739;50.350;7.578;2022-07-17T13:56:45;1.33;;;0.90;;
47882;SDS011;37739;50.350;7.578;2022-07-17T13:59:10;2.47;;;0.80;;
47882;SDS011;37739;50.350;7.578;2022-07-17T14:01:38;1.60;;;0.97;;
47882;SDS011;37739;50.350;7.578;2022-07-17T14:04:06;1.67;;;0.80;;
47882;SDS011;37739;50.350;7.578;2022-07-17T14:06:31;2.23;;;1.00;;
47882;SDS011;37739;50.350;7.578;2022-07-17T14:08:56;1.40;;;0.90;;
47882;SDS011;37739;50.350;7.578;2022-07-17T14:11:24;3.23;;;1.03;;
47882;SDS011;37739;50.350;7.578;2022-07-17T14:13:50;1.53;;;0.90;;
47882;SDS011;37739;50.350;7.578;2022-07-17T14:16:16;1.33;;;0.80;;
47882;SDS011;37739;50.350;7.578;2022-07-17T14:18:44;2.03;;;0.80;;
47882;SDS011;37739;50.350;7.578;2022-07-17T14:21:29;1.63;;;0.83;;
47882;SDS011;37739;50.350;7.578;2022-07-17T14:24:01;1.67;;;0.80;;
47882;SDS011;37739;50.350;7.578;2022-07-17T14:26:28;1.37;;;0.90;;
47882;SDS011;37739;50.350;7.578;2022-07-17T14:28:56;1.73;;;1.03;;
47882;SDS011;37739;50.350;7.578;2022-07-17T14:31:22;1.60;;;0.87;;
47882;SDS011;37739;50.350;7.578;2022-07-17T14:33:48;1.27;;;0.97;;
47882;SDS011;37739;50.350;7.578;2022-07-17T14:36:13;1.90;;;1.10;;
47882;SDS011;37739;50.350;7.578;2022-07-17T14:38:42;1.40;;;1.00;;
47882;SDS011;37739;50.350;7.578;2022-07-17T14:41:11;1.77;;;0.87;;
47882;SDS011;37739;50.350;7.578;2022-07-17T14:43:36;1.47;;;0.80;;
47882;SDS011;37739;50.350;7.578;2022-07-17T14:46:02;1.57;;;0.97;;
47882;SDS011;37739;50.350;7.578;2022-07-17T14:48:27;1.73;;;0.87;;
47882;SDS011;37739;50.350;7.578;2022-07-17T14:50:52;2.00;;;0.90;;
47882;SDS011;37739;50.350;7.578;2022-07-17T14:53:18;2.10;;;0.90;;
47882;SDS011;37739;50.350;7.578;2022-07-17T14:55:44;1.40;;;0.80;;
47882;SDS011;37739;50.350;7.578;2022-07-17T14:58:11;1.93;;;0.80;;
47882;SDS011;37739;50.350;7.578;2022-07-17T15:00:37;1.00;;;0.60;;
47882;SDS011;37739;50.350;7.578;2022-07-17T15:03:02;1.13;;;0.80;;
47882;SDS011;37739;50.350;7.578;2022-07-17T15:05:28;1.17;;;0.80;;
47882;SDS011;37739;50.350;7.578;2022-07-17T15:07:53;1.47;;;0.97;;